Time;durP1;ratioP1;P1;durP2;ratioP2;P2;SDS_P1;SDS_P2;PMS_P1;PMS_P2;Temp;Humidity;BMP_temperature;BMP_pressure;BME280_temperature;BME280_humidity;BME280_pressure;Samples;Min_cycle;Max_cycle;Signal;HPM_P1;HPM_P2
2023/03/18 00:01:45;;;;;;;;;;;11.10;99.90;;;;;;5053568;28;20379;-74
2023/03/18 00:04:11;;;;;;;;;;;11.10;99.90;;;;;;5053710;28;19974;-75
2023/03/18 00:06:39;;;;;;;;;;;11.50;99.90;;;;;;5035807;28;20012;-76
2023/03/18 00:09:05;;;;;;;;;;;11.00;99.90;;;;;;5053504;28;19974;-76
2023/03/18 00:11:31;;;;;;;;;;;11.00;99.90;;;;;;5053614;28;19905;-76
2023/03/18 00:13:57;;;;;;;;;;;11.00;99.90;;;;;;5035495;28;20378;-76
2023/03/18 00:16:23;;;;;;;;;;;11.00;99.90;;;;;;5053429;28;19947;-76
2023/03/18 00:18:48;;;;;;;;;;;11.00;99.90;;;;;;5035522;28;19905;-76
2023/03/18 00:21:15;;;;;;;;;;;11.00;99.90;;;;;;5053271;28;20349;-75
2023/03/18 00:23:41;;;;;;;;;;;11.00;99.90;;;;;;5035500;28;19909;-75
2023/03/18 00:26:07;;;;;;;;;;;11.00;99.90;;;;;;5035394;28;20014;-76
2023/03/18 00:28:33;;;;;;;;;;;10.90;99.90;;;;;;5035570;28;20421;-75
2023/03/18 00:31:07;;;;;;;;;;;13.40;99.90;;;;;;5053296;28;19909;-75
2023/03/18 00:33:33;;;;;;;;;;;10.90;99.90;;;;;;5035429;28;20376;-75
2023/03/18 00:35:59;;;;;;;;;;;10.90;99.90;;;;;;5053226;28;20257;-76
2023/03/18 00:38:25;;;;;;;;;;;11.30;99.90;;;;;;5035406;28;19904;-76
2023/03/18 00:41:03;;;;;;;;;;;10.90;99.90;;;;;;5035305;28;19989;-76
2023/03/18 00:43:32;;;;;;;;;;;10.90;99.90;;;;;;5053248;28;19987;-76
2023/03/18 00:45:59;;;;;;;;;;;11.00;99.90;;;;;;5053107;28;20284;-76
2023/03/18 00:48:25;;;;;;;;;;;11.00;99.90;;;;;;5053159;28;20416;-76
2023/03/18 00:50:50;;;;;;;;;;;11.00;99.90;;;;;;5053214;28;19995;-76
2023/03/18 00:53:16;;;;;;;;;;;11.00;99.90;;;;;;5053022;28;20359;-76
2023/03/18 00:55:42;;;;;;;;;;;11.10;99.90;;;;;;5035228;28;19952;-75
2023/03/18 00:58:08;;;;;;;;;;;11.10;99.90;;;;;;5035204;28;19905;-76
2023/03/18 01:00:35;;;;;;;;;;;11.20;99.90;;;;;;5053073;28;19911;-76
2023/03/18 01:03:00;;;;;;;;;;;11.10;99.90;;;;;;5053037;28;19911;-76
2023/03/18 01:05:26;;;;;;;;;;;11.10;99.90;;;;;;5052884;28;19987;-75
2023/03/18 01:07:52;;;;;;;;;;;11.10;99.90;;;;;;5053001;28;20318;-76
2023/03/18 01:10:17;;;;;;;;;;;11.00;99.90;;;;;;5052941;28;19912;-76
2023/03/18 01:12:46;;;;;;;;;;;11.00;99.90;;;;;;5037110;28;19909;-76
2023/03/18 01:15:13;;;;;;;;;;;11.00;99.90;;;;;;5056683;28;20031;-76
2023/03/18 01:17:38;;;;;;;;;;;11.00;99.90;;;;;;5038831;28;19905;-76
2023/03/18 01:20:04;;;;;;;;;;;11.00;99.90;;;;;;5056960;28;19905;-75
2023/03/18 01:22:30;;;;;;;;;;;11.10;99.90;;;;;;5056600;28;19928;-76
2023/03/18 01:24:56;;;;;;;;;;;11.10;99.90;;;;;;5038667;28;19909;-76
2023/03/18 01:27:21;;;;;;;;;;;11.00;99.90;;;;;;5038537;28;19904;-76
2023/03/18 01:29:47;;;;;;;;;;;11.00;99.90;;;;;;5038524;28;19904;-76
2023/03/18 01:32:13;;;;;;;;;;;11.00;99.90;;;;;;5056267;28;20007;-76
2023/03/18 01:34:40;;;;;;;;;;;11.00;99.90;;;;;;5038502;28;19958;-76
2023/03/18 01:37:05;;;;;;;;;;;11.00;99.90;;;;;;5038400;28;19909;-76
2023/03/18 01:39:31;;;;;;;;;;;11.00;99.90;;;;;;5056254;28;19927;-75
2023/03/18 01:41:57;;;;;;;;;;;11.10;99.90;;;;;;5056706;28;19912;-76
2023/03/18 01:44:23;;;;;;;;;;;11.00;99.90;;;;;;5038277;28;19905;-76
2023/03/18 01:46:50;;;;;;;;;;;11.00;99.90;;;;;;5038099;28;19999;-76
2023/03/18 01:49:16;;;;;;;;;;;11.00;99.90;;;;;;5056102;28;20296;-76
2023/03/18 01:51:43;;;;;;;;;;;11.00;99.90;;;;;;5038213;28;20379;-76
2023/03/18 01:54:11;;;;;;;;;;;11.00;99.90;;;;;;5055913;28;20009;-76
2023/03/18 01:56:38;;;;;;;;;;;11.00;99.90;;;;;;5037983;28;19951;-76
2023/03/18 01:59:04;;;;;;;;;;;11.00;99.90;;;;;;5055900;28;19928;-76
2023/03/18 02:01:36;;;;;;;;;;;11.60;99.90;;;;;;5037967;28;19927;-76
2023/03/18 02:04:03;;;;;;;;;;;11.00;99.90;;;;;;5037963;28;19920;-76
2023/03/18 02:06:29;;;;;;;;;;;11.40;99.90;;;;;;5055646;28;19913;-76
2023/03/18 02:08:55;;;;;;;;;;;11.10;99.90;;;;;;5055910;28;19904;-77
2023/03/18 02:11:22;;;;;;;;;;;11.00;99.90;;;;;;5055753;28;20279;-77
2023/03/18 02:13:48;;;;;;;;;;;11.00;99.90;;;;;;5055721;28;19912;-76
2023/03/18 02:16:19;;;;;;;;;;;11.00;99.90;;;;;;5055507;28;19999;-77
2023/03/18 02:18:50;;;;;;;;;;;11.00;99.90;;;;;;5038143;28;19967;-77
2023/03/18 02:21:36;;;;;;;;;;;11.00;99.90;;;;;;5037784;28;20284;-77
2023/03/18 02:24:08;;;;;;;;;;;11.00;99.90;;;;;;5038125;28;19927;-77
2023/03/18 02:26:41;;;;;;;;;;;11.00;99.90;;;;;;5055465;28;19905;-77
2023/03/18 02:29:07;;;;;;;;;;;11.90;99.90;;;;;;5037579;28;19905;-77
2023/03/18 02:31:34;;;;;;;;;;;12.60;99.90;;;;;;5055365;28;20359;-77
2023/03/18 02:34:00;;;;;;;;;;;11.00;99.90;;;;;;5037409;28;19909;-76
2023/03/18 02:36:30;;;;;;;;;;;11.30;99.90;;;;;;5037631;28;19962;-77
2023/03/18 02:38:56;;;;;;;;;;;11.00;99.90;;;;;;5055438;28;19975;-76
2023/03/18 02:41:26;;;;;;;;;;;11.10;99.90;;;;;;5055235;28;19943;-77
2023/03/18 02:43:52;;;;;;;;;;;11.00;99.90;;;;;;5055253;28;19905;-76
2023/03/18 02:46:30;;;;;;;;;;;10.90;99.90;;;;;;5037254;28;20361;-76
2023/03/18 02:48:56;;;;;;;;;;;10.90;99.90;;;;;;5055862;28;19954;-76
2023/03/18 02:51:22;;;;;;;;;;;10.90;99.90;;;;;;5055144;28;19990;-77
2023/03/18 02:53:47;;;;;;;;;;;10.90;99.90;;;;;;5054954;28;20406;-76
2023/03/18 02:56:13;;;;;;;;;;;10.90;99.90;;;;;;5037093;28;19904;-77
2023/03/18 02:58:39;;;;;;;;;;;11.30;99.90;;;;;;5037062;28;20003;-77
2023/03/18 03:01:06;;;;;;;;;;;10.80;99.90;;;;;;5036957;28;19905;-77
2023/03/18 03:03:33;;;;;;;;;;;10.80;99.90;;;;;;5054860;28;19905;-77
2023/03/18 03:05:59;;;;;;;;;;;10.80;99.90;;;;;;5036855;28;19917;-76
2023/03/18 03:08:25;;;;;;;;;;;10.80;99.90;;;;;;5054762;28;20015;-77
2023/03/18 03:10:51;;;;;;;;;;;10.80;99.90;;;;;;5054995;28;19948;-76
2023/03/18 03:13:17;;;;;;;;;;;10.80;99.90;;;;;;5054524;28;19908;-76
2023/03/18 03:15:42;;;;;;;;;;;10.80;99.90;;;;;;5036867;28;20323;-76
2023/03/18 03:18:09;;;;;;;;;;;10.80;99.90;;;;;;5055228;28;19905;-76
2023/03/18 03:20:36;;;;;;;;;;;10.80;99.90;;;;;;5036592;28;19911;-76
2023/03/18 03:23:02;;;;;;;;;;;12.00;99.90;;;;;;5054342;28;19944;-76
2023/03/18 03:25:28;;;;;;;;;;;10.80;99.90;;;;;;5054139;28;19905;-76
2023/03/18 03:27:54;;;;;;;;;;;11.60;99.90;;;;;;5054245;28;19999;-76
2023/03/18 03:30:20;;;;;;;;;;;10.70;99.90;;;;;;5036404;28;20002;-76
2023/03/18 03:32:46;;;;;;;;;;;10.70;99.90;;;;;;5054083;28;19919;-76
2023/03/18 03:35:15;;;;;;;;;;;10.90;99.90;;;;;;5053625;28;19904;-76
2023/03/18 03:37:41;;;;;;;;;;;10.80;99.90;;;;;;5054066;28;19931;-76
2023/03/18 03:40:08;;;;;;;;;;;11.10;99.90;;;;;;5054064;28;19905;-76
2023/03/18 03:42:33;;;;;;;;;;;10.80;99.90;;;;;;5053886;28;20425;-76
2023/03/18 03:45:01;;;;;;;;;;;10.90;99.90;;;;;;5036023;28;19908;-76
2023/03/18 03:47:29;;;;;;;;;;;10.80;99.90;;;;;;5053733;28;19911;-76
2023/03/18 03:49:55;;;;;;;;;;;10.90;99.90;;;;;;5035935;28;19987;-74
2023/03/18 03:52:20;;;;;;;;;;;10.90;99.90;;;;;;5054305;28;20010;-75
2023/03/18 03:54:46;;;;;;;;;;;10.90;99.90;;;;;;5054331;28;19996;-74
2023/03/18 03:57:11;;;;;;;;;;;10.90;99.90;;;;;;5053684;28;20355;-74
2023/03/18 03:59:37;;;;;;;;;;;10.90;99.90;;;;;;5053753;28;19959;-74
2023/03/18 04:02:02;;;;;;;;;;;10.90;99.90;;;;;;5035830;28;19912;-74
2023/03/18 04:04:28;;;;;;;;;;;10.90;99.90;;;;;;5053661;28;20356;-74
2023/03/18 04:06:54;;;;;;;;;;;11.00;99.90;;;;;;5035586;28;20284;-74
2023/03/18 04:09:20;;;;;;;;;;;11.00;99.90;;;;;;5053574;28;19950;-75
2023/03/18 04:11:46;;;;;;;;;;;11.00;99.90;;;;;;5054124;28;19999;-74
2023/03/18 04:14:11;;;;;;;;;;;11.00;99.90;;;;;;5053438;28;19934;-74
2023/03/18 04:16:37;;;;;;;;;;;11.00;99.90;;;;;;5053402;28;20010;-74
2023/03/18 04:19:02;;;;;;;;;;;11.00;99.90;;;;;;5035615;28;19904;-74
2023/03/18 04:21:29;;;;;;;;;;;11.00;99.90;;;;;;5035540;28;20066;-74
2023/03/18 04:23:56;;;;;;;;;;;11.10;99.90;;;;;;5053452;28;19904;-74
2023/03/18 04:26:21;;;;;;;;;;;11.20;99.90;;;;;;5053391;28;19995;-74
2023/03/18 04:28:46;;;;;;;;;;;11.00;99.90;;;;;;5035495;28;19947;-74
2023/03/18 04:31:12;;;;;;;;;;;11.00;99.90;;;;;;5053367;28;19912;-74
2023/03/18 04:33:38;;;;;;;;;;;11.00;99.90;;;;;;5053226;28;19963;-74
2023/03/18 04:36:04;;;;;;;;;;;11.10;99.90;;;;;;5053167;28;20326;-74
2023/03/18 04:38:29;;;;;;;;;;;11.00;99.90;;;;;;5035327;28;19911;-74
2023/03/18 04:40:55;;;;;;;;;;;11.00;99.90;;;;;;5035417;28;19979;-75
2023/03/18 04:43:21;;;;;;;;;;;11.00;99.90;;;;;;5053267;28;19905;-75
2023/03/18 04:45:46;;;;;;;;;;;11.00;99.90;;;;;;5053293;28;20330;-75
2023/03/18 04:48:12;;;;;;;;;;;11.00;99.90;;;;;;5056338;28;19911;-75
2023/03/18 04:50:37;;;;;;;;;;;10.90;99.90;;;;;;5057790;28;19905;-75
2023/03/18 04:53:03;;;;;;;;;;;10.90;99.90;;;;;;5057342;28;19953;-76
2023/03/18 04:55:29;;;;;;;;;;;10.90;99.90;;;;;;5057034;28;20359;-76
2023/03/18 04:57:54;;;;;;;;;;;10.90;99.90;;;;;;5039186;28;19909;-76
2023/03/18 05:00:23;;;;;;;;;;;11.60;99.90;;;;;;5039103;28;20000;-76
2023/03/18 05:02:49;;;;;;;;;;;10.90;99.90;;;;;;5039483;28;19905;-76
2023/03/18 05:05:14;;;;;;;;;;;10.90;99.90;;;;;;5039031;28;20010;-76
2023/03/18 05:07:41;;;;;;;;;;;10.90;99.90;;;;;;5056880;28;19919;-76
2023/03/18 05:10:07;;;;;;;;;;;10.90;99.90;;;;;;5038910;28;19909;-76
2023/03/18 05:12:33;;;;;;;;;;;10.90;99.90;;;;;;5056615;28;20386;-76
2023/03/18 05:14:58;;;;;;;;;;;10.80;99.90;;;;;;5056903;28;20284;-77
2023/03/18 05:17:24;;;;;;;;;;;10.80;99.90;;;;;;5056999;28;19905;-76
2023/03/18 05:19:49;;;;;;;;;;;10.80;99.90;;;;;;5039041;28;19904;-76
2023/03/18 05:22:16;;;;;;;;;;;10.80;99.90;;;;;;5038940;28;19915;-76
2023/03/18 05:24:42;;;;;;;;;;;10.80;99.90;;;;;;5056659;28;19947;-76
2023/03/18 05:27:09;;;;;;;;;;;10.80;99.90;;;;;;5038567;28;19909;-76
2023/03/18 05:29:36;;;;;;;;;;;10.80;99.90;;;;;;5056457;28;19912;-76
2023/03/18 05:32:03;;;;;;;;;;;10.90;99.90;;;;;;5056364;28;19912;-76
2023/03/18 05:34:28;;;;;;;;;;;10.90;99.90;;;;;;5038517;28;20291;-75
2023/03/18 05:36:54;;;;;;;;;;;10.80;99.90;;;;;;5056369;28;19905;-75
2023/03/18 05:39:20;;;;;;;;;;;10.90;99.90;;;;;;5038405;28;19905;-75
2023/03/18 05:41:45;;;;;;;;;;;10.90;99.90;;;;;;5038343;28;19908;-75
2023/03/18 05:44:11;;;;;;;;;;;10.90;99.90;;;;;;5038238;28;19999;-75
2023/03/18 05:46:36;;;;;;;;;;;10.80;99.90;;;;;;5056395;28;19954;-75
2023/03/18 05:49:02;;;;;;;;;;;10.90;99.90;;;;;;5038218;28;19911;-76
2023/03/18 05:51:27;;;;;;;;;;;10.80;99.90;;;;;;5038222;28;19905;-75
2023/03/18 05:53:53;;;;;;;;;;;10.80;99.90;;;;;;5038450;28;20003;-75
2023/03/18 05:56:23;;;;;;;;;;;10.70;99.90;;;;;;5038047;28;19905;-75
2023/03/18 05:58:50;;;;;;;;;;;10.80;99.90;;;;;;5037489;28;19905;-75
2023/03/18 06:01:15;;;;;;;;;;;10.80;99.90;;;;;;5038030;28;20291;-75
2023/03/18 06:03:41;;;;;;;;;;;11.30;99.90;;;;;;5055901;28;19915;-75
2023/03/18 06:06:07;;;;;;;;;;;10.70;99.90;;;;;;5037836;28;19915;-76
2023/03/18 06:08:36;;;;;;;;;;;11.90;99.90;;;;;;5037975;28;19909;-75
2023/03/18 06:11:02;;;;;;;;;;;10.70;99.90;;;;;;5055763;28;19988;-76
2023/03/18 06:13:28;;;;;;;;;;;10.70;99.90;;;;;;5037748;28;19970;-75
2023/03/18 06:15:58;;;;;;;;;;;10.70;99.90;;;;;;5037655;28;20423;-75
2023/03/18 06:18:24;;;;;;;;;;;10.70;99.90;;;;;;5037609;28;19931;-75
2023/03/18 06:20:49;;;;;;;;;;;10.70;99.90;;;;;;5037931;28;19904;-75
2023/03/18 06:23:15;;;;;;;;;;;10.70;99.90;;;;;;5055862;28;19911;-75
2023/03/18 06:25:40;;;;;;;;;;;10.70;99.90;;;;;;5037477;28;19958;-75
2023/03/18 06:28:06;;;;;;;;;;;10.70;99.90;;;;;;5055400;28;19915;-75
2023/03/18 06:30:32;;;;;;;;;;;10.70;99.90;;;;;;5037795;28;19904;-75
2023/03/18 06:32:58;;;;;;;;;;;10.60;99.90;;;;;;5055206;28;19915;-75
2023/03/18 06:35:26;;;;;;;;;;;10.70;99.90;;;;;;5037368;28;19959;-75
2023/03/18 06:37:52;;;;;;;;;;;10.60;99.90;;;;;;5037341;28;20015;-75
2023/03/18 06:40:21;;;;;;;;;;;12.00;99.90;;;;;;5037917;28;20375;-75
2023/03/18 06:42:46;;;;;;;;;;;10.70;99.90;;;;;;5055143;28;19916;-75
2023/03/18 06:45:14;;;;;;;;;;;10.80;99.90;;;;;;5055051;28;19905;-75
2023/03/18 06:47:40;;;;;;;;;;;10.80;99.90;;;;;;5037138;28;19904;-74
2023/03/18 06:50:05;;;;;;;;;;;10.90;99.90;;;;;;5037070;28;19923;-75
2023/03/18 06:52:31;;;;;;;;;;;10.80;99.90;;;;;;5036976;28;19944;-74
2023/03/18 06:54:57;;;;;;;;;;;10.80;99.90;;;;;;5037089;28;19905;-75
2023/03/18 06:57:23;;;;;;;;;;;10.90;99.90;;;;;;5054866;28;19905;-76
2023/03/18 06:59:49;;;;;;;;;;;10.90;99.90;;;;;;5036979;28;20370;-76
2023/03/18 07:02:15;;;;;;;;;;;10.90;99.90;;;;;;5054788;28;20319;-75
2023/03/18 07:04:40;;;;;;;;;;;11.30;99.90;;;;;;5036793;28;19909;-76
2023/03/18 07:07:06;;;;;;;;;;;11.00;99.90;;;;;;5054337;28;19962;-76
2023/03/18 07:09:32;;;;;;;;;;;10.80;99.90;;;;;;5054034;28;20384;-76
2023/03/18 07:11:59;;;;;;;;;;;10.80;99.90;;;;;;5054531;28;19949;-75
2023/03/18 07:14:27;;;;;;;;;;;10.70;99.90;;;;;;5036634;28;19909;-76
2023/03/18 07:16:52;;;;;;;;;;;10.80;99.90;;;;;;5036557;28;19995;-75
2023/03/18 07:19:18;;;;;;;;;;;10.80;99.90;;;;;;5054385;28;19967;-75
2023/03/18 07:21:44;;;;;;;;;;;10.90;99.90;;;;;;5036522;28;19904;-75
2023/03/18 07:24:10;;;;;;;;;;;11.10;99.90;;;;;;5054275;28;19905;-76
2023/03/18 07:26:36;;;;;;;;;;;11.70;99.90;;;;;;5054252;28;19908;-75
2023/03/18 07:29:02;;;;;;;;;;;11.30;99.90;;;;;;5036369;28;19904;-75
2023/03/18 07:31:28;;;;;;;;;;;11.40;99.90;;;;;;5036352;28;19987;-75
2023/03/18 07:33:54;;;;;;;;;;;11.50;99.90;;;;;;5054004;28;19909;-75
2023/03/18 07:36:20;;;;;;;;;;;11.60;99.90;;;;;;5036290;28;19908;-76
2023/03/18 07:38:45;;;;;;;;;;;11.70;99.90;;;;;;5054164;28;20291;-75
2023/03/18 07:41:11;;;;;;;;;;;11.70;99.90;;;;;;5036281;28;20282;-76
2023/03/18 07:43:38;;;;;;;;;;;11.80;99.90;;;;;;5036276;28;19905;-76
2023/03/18 07:46:04;;;;;;;;;;;11.80;99.90;;;;;;5053962;28;19912;-76
2023/03/18 07:48:30;;;;;;;;;;;12.20;99.90;;;;;;5036104;28;19904;-76
2023/03/18 07:50:59;;;;;;;;;;;11.90;99.90;;;;;;5036688;28;19909;-78
2023/03/18 07:53:26;;;;;;;;;;;12.00;99.90;;;;;;5055129;28;20245;-77
2023/03/18 07:55:52;;;;;;;;;;;12.00;99.90;;;;;;5054964;28;20367;-77
2023/03/18 07:58:17;;;;;;;;;;;12.00;99.90;;;;;;5037626;28;19905;-75
2023/03/18 08:00:43;;;;;;;;;;;12.90;99.90;;;;;;5035971;28;19912;-77
2023/03/18 08:03:10;;;;;;;;;;;12.20;99.90;;;;;;5053541;28;20041;-76
2023/03/18 08:05:36;;;;;;;;;;;12.20;99.90;;;;;;5035583;28;20341;-74
2023/03/18 08:08:03;;;;;;;;;;;12.20;99.90;;;;;;5053614;28;19920;-74
2023/03/18 08:10:29;;;;;;;;;;;12.30;99.90;;;;;;5053568;28;19990;-73
2023/03/18 08:12:55;;;;;;;;;;;12.40;99.90;;;;;;5035545;28;19913;-74
2023/03/18 08:15:21;;;;;;;;;;;13.10;99.90;;;;;;5035649;28;20275;-74
2023/03/18 08:17:47;;;;;;;;;;;12.60;99.90;;;;;;5035549;28;19906;-74
2023/03/18 08:20:13;;;;;;;;;;;12.60;99.90;;;;;;5035622;28;19911;-74
2023/03/18 08:22:38;;;;;;;;;;;12.70;99.90;;;;;;5053464;28;19974;-74
2023/03/18 08:25:04;;;;;;;;;;;12.80;99.90;;;;;;5035666;28;19912;-75
2023/03/18 08:27:30;;;;;;;;;;;12.90;99.90;;;;;;5053987;28;20332;-76
2023/03/18 08:29:55;;;;;;;;;;;12.90;99.90;;;;;;5053921;28;19962;-75
2023/03/18 08:32:21;;;;;;;;;;;13.00;99.90;;;;;;5053634;28;19905;-76
2023/03/18 08:34:47;;;;;;;;;;;13.10;99.90;;;;;;5038015;28;19912;-76
2023/03/18 08:37:13;;;;;;;;;;;13.10;99.90;;;;;;5054919;28;19905;-77
2023/03/18 08:39:40;;;;;;;;;;;13.20;99.90;;;;;;5036731;28;19905;-76
2023/03/18 08:42:06;;;;;;;;;;;13.20;99.90;;;;;;5036004;28;19912;-76
2023/03/18 08:44:50;;;;;;;;;;;13.10;99.90;;;;;;5035640;28;19908;-76
2023/03/18 08:47:16;;;;;;;;;;;13.10;99.90;;;;;;5039226;28;19916;-77
2023/03/18 08:52:33;;;;;;;;;;;13.00;99.90;;;;;;5035639;28;19909;-75
2023/03/18 08:55:02;;;;;;;;;;;12.90;99.90;;;;;;5053495;28;19905;-76
2023/03/18 08:57:28;;;;;;;;;;;12.80;99.90;;;;;;5053225;28;20308;-76
2023/03/18 08:59:54;;;;;;;;;;;13.10;99.90;;;;;;5035452;28;19905;-76
2023/03/18 09:02:49;;;;;;;;;;;16.20;99.90;;;;;;5053702;28;19966;-76
2023/03/18 09:05:17;;;;;;;;;;;13.40;99.90;;;;;;5053681;28;19915;-76
2023/03/18 09:07:42;;;;;;;;;;;13.40;99.90;;;;;;5053336;28;19923;-76
2023/03/18 09:10:08;;;;;;;;;;;13.90;99.90;;;;;;5053340;28;19913;-77
2023/03/18 09:12:34;;;;;;;;;;;13.50;99.90;;;;;;5053184;28;19916;-77
2023/03/18 09:15:00;;;;;;;;;;;13.70;99.90;;;;;;5053679;28;19904;-77
2023/03/18 09:17:26;;;;;;;;;;;13.80;99.90;;;;;;5053131;28;20359;-77
2023/03/18 09:19:52;;;;;;;;;;;13.80;99.90;;;;;;5053813;28;19915;-77
2023/03/18 09:22:20;;;;;;;;;;;13.90;99.90;;;;;;5035705;28;20386;-77
2023/03/18 09:24:46;;;;;;;;;;;13.90;99.90;;;;;;5053458;28;20375;-76
2023/03/18 09:27:11;;;;;;;;;;;14.00;99.90;;;;;;5035689;28;19966;-77
2023/03/18 09:29:37;;;;;;;;;;;14.20;99.90;;;;;;5054467;28;19905;-77
2023/03/18 09:32:02;;;;;;;;;;;14.20;99.90;;;;;;5036080;28;19904;-77
2023/03/18 09:34:28;;;;;;;;;;;14.40;99.90;;;;;;5056432;28;19908;-77
2023/03/18 09:36:53;;;;;;;;;;;14.50;99.90;;;;;;5057075;28;19978;-77
2023/03/18 09:39:19;;;;;;;;;;;14.70;99.90;;;;;;5057068;28;19904;-80
2023/03/18 09:42:06;;;;;;;;;;;14.80;99.90;;;;;;5038638;28;19912;-77
2023/03/18 09:44:33;;;;;;;;;;;15.00;99.90;;;;;;5038460;28;19911;-77
2023/03/18 09:47:11;;;;;;;;;;;15.30;99.90;;;;;;5038340;28;19909;-76
2023/03/18 09:49:58;;;;;;;;;;;15.20;99.90;;;;;;5038398;28;19916;-77
2023/03/18 09:52:31;;;;;;;;;;;15.10;99.90;;;;;;5018806;28;19908;-77
2023/03/18 09:55:07;;;;;;;;;;;14.80;99.90;;;;;;5038403;28;19911;-76
2023/03/18 09:57:38;;;;;;;;;;;14.70;99.90;;;;;;5056214;28;19908;-77
2023/03/18 10:00:04;;;;;;;;;;;14.80;99.90;;;;;;5056106;28;19908;-77
2023/03/18 10:02:35;;;;;;;;;;;15.00;99.90;;;;;;5038440;28;19935;-79
2023/03/18 10:05:03;;;;;;;;;;;15.10;99.90;;;;;;5039669;28;19912;-76
2023/03/18 10:07:31;;;;;;;;;;;15.20;99.90;;;;;;5038016;28;19964;-76
2023/03/18 10:10:17;;;;;;;;;;;15.30;99.90;;;;;;5038067;28;20319;-76
2023/03/18 10:12:46;;;;;;;;;;;15.50;99.90;;;;;;5056289;28;19915;-75
2023/03/18 10:15:12;;;;;;;;;;;15.60;99.90;;;;;;5054052;28;19999;-76
2023/03/18 10:17:40;;;;;;;;;;;15.50;99.90;;;;;;5037622;28;19944;-76
2023/03/18 10:20:15;;;;;;;;;;;15.50;99.90;;;;;;5055651;28;20368;-76
2023/03/18 10:22:44;;;;;;;;;;;15.30;99.90;;;;;;5056226;28;19908;-76
2023/03/18 10:25:26;;;;;;;;;;;15.40;99.90;;;;;;5037563;28;19913;-76
2023/03/18 10:27:58;;;;;;;;;;;15.60;99.90;;;;;;5037333;28;19947;-76
2023/03/18 10:30:32;;;;;;;;;;;15.80;99.90;;;;;;5055456;28;19947;-77
2023/03/18 10:33:07;;;;;;;;;;;16.00;99.90;;;;;;5037608;28;19909;-77
2023/03/18 10:35:37;;;;;;;;;;;16.40;99.90;;;;;;5055076;28;19905;-76
2023/03/18 10:38:23;;;;;;;;;;;16.70;99.90;;;;;;5037100;28;19963;-75
2023/03/18 10:40:49;;;;;;;;;;;16.90;99.90;;;;;;5036235;28;19905;-76
2023/03/18 10:43:16;;;;;;;;;;;17.00;99.90;;;;;;5037111;28;19928;-76
2023/03/18 10:45:42;;;;;;;;;;;17.10;99.90;;;;;;5036929;28;19909;-75
2023/03/18 10:48:12;;;;;;;;;;;17.00;99.90;;;;;;5037269;28;19905;-75
2023/03/18 10:50:42;;;;;;;;;;;16.80;99.90;;;;;;5037065;28;19995;-76
2023/03/18 10:53:12;;;;;;;;;;;16.80;99.90;;;;;;5036847;28;19908;-75
2023/03/18 10:55:44;;;;;;;;;;;16.70;99.90;;;;;;5036999;28;19911;-75
2023/03/18 10:58:15;;;;;;;;;;;16.70;99.90;;;;;;5037015;28;19905;-75
2023/03/18 11:00:40;;;;;;;;;;;16.60;99.90;;;;;;5036885;28;19909;-76
2023/03/18 11:03:15;;;;;;;;;;;16.60;99.90;;;;;;5054815;28;19916;-75
2023/03/18 11:05:42;;;;;;;;;;;16.50;99.90;;;;;;5055243;28;19995;-75
2023/03/18 11:08:27;;;;;;;;;;;16.50;99.90;;;;;;5054628;28;19920;-75
2023/03/18 11:10:53;;;;;;;;;;;16.50;99.90;;;;;;5036830;28;20447;-75
2023/03/18 11:13:19;;;;;;;;;;;16.50;99.90;;;;;;5054493;28;20003;-75
2023/03/18 11:15:51;;;;;;;;;;;16.60;99.90;;;;;;5054818;28;20371;-75
2023/03/18 11:18:20;;;;;;;;;;;16.60;99.90;;;;;;5036585;28;19995;-75
2023/03/18 11:20:48;;;;;;;;;;;16.70;99.90;;;;;;5054411;28;19909;-75
2023/03/18 11:23:16;;;;;;;;;;;16.70;99.90;;;;;;5054361;28;19905;-74
2023/03/18 11:25:47;;;;;;;;;;;16.70;99.90;;;;;;5036382;28;19954;-75
2023/03/18 11:28:20;;;;;;;;;;;16.70;99.90;;;;;;5036217;28;19912;-75
2023/03/18 11:30:48;;;;;;;;;;;16.80;99.90;;;;;;5054054;28;19969;-74
2023/03/18 11:33:15;;;;;;;;;;;16.80;99.90;;;;;;5036239;28;20283;-74
2023/03/18 11:35:50;;;;;;;;;;;16.80;99.90;;;;;;5035937;28;19911;-74
2023/03/18 11:38:35;;;;;;;;;;;16.70;99.90;;;;;;5054184;28;19905;-74
2023/03/18 11:41:21;;;;;;;;;;;16.60;99.90;;;;;;5036160;28;20286;-75
2023/03/18 11:43:59;;;;;;;;;;;16.60;99.90;;;;;;5053941;28;19969;-75
2023/03/18 11:46:26;;;;;;;;;;;16.40;99.90;;;;;;5036022;28;19904;-75
2023/03/18 11:48:52;;;;;;;;;;;16.40;99.90;;;;;;5053947;28;19905;-75
2023/03/18 11:51:36;;;;;;;;;;;16.40;99.90;;;;;;5054009;28;19905;-75
2023/03/18 11:54:32;;;;;;;;;;;16.30;99.90;;;;;;5036243;28;19908;-75
2023/03/18 11:57:31;;;;;;;;;;;16.20;99.90;;;;;;5022655;28;19935;-75
2023/03/18 12:00:12;;;;;;;;;;;16.10;99.90;;;;;;5020530;28;20284;-75
2023/03/18 12:02:41;;;;;;;;;;;16.20;99.90;;;;;;5035845;28;19905;-75
2023/03/18 12:05:15;;;;;;;;;;;16.20;99.90;;;;;;5053766;28;19912;-74
2023/03/18 12:07:53;;;;;;;;;;;16.30;99.90;;;;;;5035716;28;20019;-75
2023/03/18 12:10:35;;;;;;;;;;;16.40;99.90;;;;;;5053586;28;19906;-74
2023/03/18 12:13:10;;;;;;;;;;;16.50;99.90;;;;;;5053447;28;19908;-75
2023/03/18 12:15:46;;;;;;;;;;;16.60;99.90;;;;;;5037037;28;19940;-75
2023/03/18 12:18:30;;;;;;;;;;;16.80;99.90;;;;;;5053517;28;19962;-77
2023/03/18 12:21:02;;;;;;;;;;;17.00;99.90;;;;;;5053836;28;19904;-77
2023/03/18 12:23:38;;;;;;;;;;;17.20;99.90;;;;;;5054178;28;19905;-77
2023/03/18 12:26:07;;;;;;;;;;;17.20;99.90;;;;;;5053689;28;19905;-77
2023/03/18 12:28:33;;;;;;;;;;;17.20;99.90;;;;;;5053742;28;19936;-77
2023/03/18 12:31:01;;;;;;;;;;;17.10;99.90;;;;;;5053784;28;19984;-77
2023/03/18 12:33:49;;;;;;;;;;;16.80;99.90;;;;;;5053678;28;20287;-77
2023/03/18 12:36:15;;;;;;;;;;;16.60;99.90;;;;;;5036075;28;19999;-77
2023/03/18 12:38:59;;;;;;;;;;;16.40;99.90;;;;;;5036103;28;19951;-77
2023/03/18 12:41:34;;;;;;;;;;;16.20;99.90;;;;;;5035985;28;19905;-76
2023/03/18 12:44:06;;;;;;;;;;;16.00;99.90;;;;;;5035522;28;19911;-77
2023/03/18 12:46:32;;;;;;;;;;;15.70;99.90;;;;;;5053552;28;20383;-77
2023/03/18 12:49:13;;;;;;;;;;;15.60;99.90;;;;;;5053382;28;19905;-77
2023/03/18 12:51:44;;;;;;;;;;;15.40;99.90;;;;;;5035456;28;20322;-76
2023/03/18 12:54:14;;;;;;;;;;;15.40;99.90;;;;;;5035339;28;19909;-77
2023/03/18 12:56:43;;;;;;;;;;;15.40;99.90;;;;;;5035440;28;19905;-77
2023/03/18 12:59:36;;;;;;;;;;;15.20;99.90;;;;;;5053614;28;19904;-76
2023/03/18 13:02:18;;;;;;;;;;;15.30;99.90;;;;;;5030506;28;20011;-77
2023/03/18 13:04:48;;;;;;;;;;;15.30;99.90;;;;;;5035641;28;19979;-77
2023/03/18 13:07:19;;;;;;;;;;;15.40;99.90;;;;;;5035677;28;19966;-77
2023/03/18 13:10:07;;;;;;;;;;;15.40;99.90;;;;;;5039641;28;19959;-77
2023/03/18 13:12:37;;;;;;;;;;;15.40;99.90;;;;;;5057400;28;20283;-77
2023/03/18 13:15:29;;;;;;;;;;;15.50;99.90;;;;;;5039638;28;19904;-76
2023/03/18 13:17:57;;;;;;;;;;;15.60;99.90;;;;;;5036950;28;19904;-76
2023/03/18 13:20:25;;;;;;;;;;;15.80;99.90;;;;;;5057424;28;19951;-76
2023/03/18 13:22:56;;;;;;;;;;;16.10;99.90;;;;;;5057616;28;19911;-78
2023/03/18 13:25:22;;;;;;;;;;;16.30;99.90;;;;;;5059171;28;19951;-78
2023/03/18 13:27:57;;;;;;;;;;;16.40;99.90;;;;;;5059224;28;19912;-78
2023/03/18 13:30:41;;;;;;;;;;;16.60;99.90;;;;;;5059185;28;19905;-78
2023/03/18 13:33:22;;;;;;;;;;;16.80;99.90;;;;;;5041061;28;19916;-78
2023/03/18 13:36:07;;;;;;;;;;;17.10;99.90;;;;;;5041414;28;19905;-78
2023/03/18 13:38:52;;;;;;;;;;;17.30;99.90;;;;;;5059134;28;20439;-77
2023/03/18 13:41:37;;;;;;;;;;;17.40;99.90;;;;;;5039948;28;20252;-78
2023/03/18 13:44:13;;;;;;;;;;;17.40;99.90;;;;;;5057729;28;19905;-78
2023/03/18 13:46:53;;;;;;;;;;;17.20;99.90;;;;;;5058458;28;19911;-79
2023/03/18 13:49:26;;;;;;;;;;;17.10;99.90;;;;;;5059226;28;20302;-79
2023/03/18 13:51:56;;;;;;;;;;;17.00;99.90;;;;;;5040555;28;19905;-78
2023/03/18 13:54:23;;;;;;;;;;;16.90;99.90;;;;;;5039655;28;19930;-77
2023/03/18 13:56:51;;;;;;;;;;;16.80;99.90;;;;;;5057880;28;20260;-78
2023/03/18 13:59:32;;;;;;;;;;;16.80;99.90;;;;;;5057771;28;19966;-77
2023/03/18 14:02:23;;;;;;;;;;;16.80;99.90;;;;;;5057868;28;19911;-78
2023/03/18 14:04:50;;;;;;;;;;;16.80;99.90;;;;;;5034766;28;19951;-77
2023/03/18 14:07:16;;;;;;;;;;;16.80;99.90;;;;;;5057484;28;19919;-78
2023/03/18 14:09:51;;;;;;;;;;;16.80;99.90;;;;;;5040560;28;19915;-77
2023/03/18 14:12:18;;;;;;;;;;;16.80;99.90;;;;;;5039171;28;19916;-77
2023/03/18 14:14:47;;;;;;;;;;;16.80;99.90;;;;;;5056900;28;20391;-77
2023/03/18 14:17:17;;;;;;;;;;;16.90;99.90;;;;;;5038987;28;20352;-77
2023/03/18 14:19:43;;;;;;;;;;;16.90;99.90;;;;;;5038833;28;20003;-77
2023/03/18 14:22:17;;;;;;;;;;;17.00;99.90;;;;;;5039070;28;19949;-77
2023/03/18 14:24:43;;;;;;;;;;;17.30;99.90;;;;;;5038957;28;19905;-78
2023/03/18 14:27:14;;;;;;;;;;;17.70;99.90;;;;;;5038728;28;19912;-77
2023/03/18 14:29:41;;;;;;;;;;;17.90;99.90;;;;;;5038841;28;20426;-77